Time;durP1;ratioP1;P1;durP2;ratioP2;P2;SDS_P1;SDS_P2;PMS_P1;PMS_P2;Temp;Humidity;BMP_temperature;BMP_pressure;BME280_temperature;BME280_humidity;BME280_pressure;Samples;Min_cycle;Max_cycle;Signal;HPM_P1;HPM_P2
2022/10/11 00:00:08;;;;;;;6.70;4.10;;;;;;;;;;5032810;28;20029;-79
2022/10/11 00:02:34;;;;;;;9.13;4.40;;;;;;;;;;5035317;28;20190;-79
2022/10/11 00:05:00;;;;;;;7.90;4.28;;;;;;;;;;5034216;28;20041;-79
2022/10/11 00:07:27;;;;;;;8.90;4.20;;;;;;;;;;5032740;28;20022;-79
2022/10/11 00:09:53;;;;;;;8.27;4.10;;;;;;;;;;5033212;28;20037;-79
2022/10/11 00:12:19;;;;;;;7.13;4.03;;;;;;;;;;5047901;28;20025;-79
2022/10/11 00:14:45;;;;;;;10.27;4.60;;;;;;;;;;5032531;28;20041;-79
2022/10/11 00:17:12;;;;;;;6.07;3.83;;;;;;;;;;5033062;28;20032;-79
2022/10/11 00:19:38;;;;;;;8.00;3.97;;;;;;;;;;5032172;28;20406;-79
2022/10/11 00:22:04;;;;;;;8.05;4.10;;;;;;;;;;5032307;28;20029;-79
2022/10/11 00:24:31;;;;;;;10.65;4.32;;;;;;;;;;5032417;28;20441;-79
2022/10/11 00:26:57;;;;;;;8.75;4.28;;;;;;;;;;5032674;28;20028;-79
2022/10/11 00:29:24;;;;;;;12.57;4.63;;;;;;;;;;5032792;28;20036;-79
2022/10/11 00:31:50;;;;;;;8.75;4.55;;;;;;;;;;5032411;28;20017;-79
2022/10/11 00:34:16;;;;;;;8.75;4.18;;;;;;;;;;5032849;28;20037;-79
2022/10/11 00:36:44;;;;;;;6.93;3.85;;;;;;;;;;5032416;28;20021;-79
2022/10/11 00:39:11;;;;;;;7.40;3.95;;;;;;;;;;5032584;28;20083;-79
2022/10/11 00:41:37;;;;;;;7.28;4.00;;;;;;;;;;5032595;28;20024;-79
2022/10/11 00:44:09;;;;;;;9.07;3.92;;;;;;;;;;5032382;28;20037;-79
2022/10/11 00:46:36;;;;;;;10.85;4.85;;;;;;;;;;5031837;28;20033;-79
2022/10/11 00:49:06;;;;;;;4.15;3.45;;;;;;;;;;5031379;28;20044;-79
2022/10/11 00:51:43;;;;;;;8.90;4.63;;;;;;;;;;5032324;28;20031;-79
2022/10/11 00:54:11;;;;;;;8.98;3.78;;;;;;;;;;5032405;28;20026;-79
2022/10/11 00:56:39;;;;;;;7.55;4.25;;;;;;;;;;5031933;28;20029;-79
2022/10/11 00:59:10;;;;;;;8.90;3.97;;;;;;;;;;5032065;28;20413;-79
2022/10/11 01:01:36;;;;;;;6.22;4.10;;;;;;;;;;5032399;28;20033;-79
2022/10/11 01:04:03;;;;;;;8.68;4.10;;;;;;;;;;5031779;28;20051;-79
2022/10/11 01:06:29;;;;;;;6.35;4.00;;;;;;;;;;5032181;28;20393;-79
2022/10/11 01:08:56;;;;;;;7.55;3.90;;;;;;;;;;5033412;28;20025;-79
2022/10/11 01:11:24;;;;;;;7.05;3.70;;;;;;;;;;5036188;28;20026;-79
2022/10/11 01:13:56;;;;;;;9.48;4.38;;;;;;;;;;5035853;28;20042;-79
2022/10/11 01:16:33;;;;;;;9.40;4.43;;;;;;;;;;5035926;28;20409;-80
2022/10/11 01:19:12;;;;;;;7.00;3.80;;;;;;;;;;5035966;28;20100;-79
2022/10/11 01:21:41;;;;;;;7.57;4.50;;;;;;;;;;5040117;28;20029;-79
2022/10/11 01:24:13;;;;;;;9.80;4.60;;;;;;;;;;5037016;28;20037;-79
2022/10/11 01:27:09;;;;;;;10.30;4.25;;;;;;;;;;5036149;28;20029;-79
2022/10/11 01:29:38;;;;;;;9.00;4.25;;;;;;;;;;5013738;28;20026;-79
2022/10/11 01:32:10;;;;;;;13.15;4.38;;;;;;;;;;4996742;28;20034;-79
2022/10/11 01:34:40;;;;;;;8.35;4.30;;;;;;;;;;4994148;28;20038;-79
2022/10/11 01:37:14;;;;;;;8.88;4.10;;;;;;;;;;4994483;28;20034;-79
2022/10/11 01:39:43;;;;;;;4.88;3.95;;;;;;;;;;4993888;28;20044;-79
2022/10/11 01:42:11;;;;;;;9.05;4.28;;;;;;;;;;4994312;28;20033;-79
2022/10/11 01:44:38;;;;;;;6.78;4.35;;;;;;;;;;5006894;28;20041;-79
2022/10/11 01:47:05;;;;;;;6.40;3.95;;;;;;;;;;5013694;28;20049;-80
2022/10/11 01:49:31;;;;;;;5.95;3.85;;;;;;;;;;5013475;28;20494;-80
2022/10/11 01:52:00;;;;;;;5.80;4.10;;;;;;;;;;5013490;28;20514;-79
2022/10/11 01:54:45;;;;;;;5.20;3.80;;;;;;;;;;5013646;28;20014;-79
2022/10/11 01:57:36;;;;;;;4.85;4.00;;;;;;;;;;5013322;28;20028;-79
2022/10/11 02:00:08;;;;;;;10.68;4.38;;;;;;;;;;5012951;28;20030;-79
2022/10/11 02:02:34;;;;;;;9.07;4.63;;;;;;;;;;5013005;28;20038;-79
2022/10/11 02:05:05;;;;;;;8.05;4.50;;;;;;;;;;5015019;28;20411;-79
2022/10/11 02:07:50;;;;;;;8.93;4.70;;;;;;;;;;5034934;28;20470;-79
2022/10/11 02:10:22;;;;;;;7.88;4.07;;;;;;;;;;5035539;28;20479;-79
2022/10/11 02:12:53;;;;;;;9.73;4.28;;;;;;;;;;5034863;28;20041;-79
2022/10/11 02:15:20;;;;;;;8.52;4.35;;;;;;;;;;5034587;28;20039;-79
2022/10/11 02:17:48;;;;;;;10.88;4.53;;;;;;;;;;5035097;28;20039;-79
2022/10/11 02:20:18;;;;;;;9.60;3.95;;;;;;;;;;5034485;28;20021;-79
2022/10/11 02:22:46;;;;;;;7.97;4.10;;;;;;;;;;5034956;28;20048;-79
2022/10/11 02:25:16;;;;;;;6.80;4.10;;;;;;;;;;5034590;28;20045;-79
2022/10/11 02:27:45;;;;;;;6.70;4.38;;;;;;;;;;5034495;28;20021;-79
2022/10/11 02:30:11;;;;;;;11.25;5.15;;;;;;;;;;5034414;28;20504;-80
2022/10/11 02:32:39;;;;;;;6.13;4.60;;;;;;;;;;5034500;28;20037;-79
2022/10/11 02:35:05;;;;;;;7.70;4.05;;;;;;;;;;5034538;28;20038;-79
2022/10/11 02:37:36;;;;;;;8.60;4.55;;;;;;;;;;5034508;28;20030;-79
2022/10/11 02:40:05;;;;;;;5.10;4.18;;;;;;;;;;5038347;28;20037;-78
2022/10/11 02:42:35;;;;;;;7.20;4.53;;;;;;;;;;5049267;28;20031;-79
2022/10/11 02:45:22;;;;;;;8.52;4.53;;;;;;;;;;5034324;28;20038;-79
2022/10/11 02:47:49;;;;;;;8.70;4.40;;;;;;;;;;5034166;28;20040;-79
2022/10/11 02:50:15;;;;;;;6.78;4.28;;;;;;;;;;5034220;28;20029;-79
2022/10/11 02:52:42;;;;;;;5.15;4.15;;;;;;;;;;5034228;28;20025;-79
2022/10/11 02:55:09;;;;;;;4.70;4.18;;;;;;;;;;5049901;28;20035;-79
2022/10/11 02:57:35;;;;;;;7.72;3.97;;;;;;;;;;5033679;28;20095;-79
2022/10/11 03:00:01;;;;;;;8.75;4.18;;;;;;;;;;5034043;28;20028;-79
2022/10/11 03:02:28;;;;;;;9.10;4.30;;;;;;;;;;5034134;28;20021;-80
2022/10/11 03:04:54;;;;;;;4.93;4.20;;;;;;;;;;5033756;28;20033;-79
2022/10/11 03:07:20;;;;;;;10.35;4.55;;;;;;;;;;5033716;28;20034;-79
2022/10/11 03:09:47;;;;;;;6.55;4.65;;;;;;;;;;5034137;28;20031;-80
2022/10/11 03:12:13;;;;;;;5.18;3.72;;;;;;;;;;5033415;28;20022;-79
2022/10/11 03:14:39;;;;;;;8.35;4.20;;;;;;;;;;5034164;28;20056;-79
2022/10/11 03:17:06;;;;;;;7.47;4.30;;;;;;;;;;5049524;28;20030;-80
2022/10/11 03:19:32;;;;;;;10.00;4.45;;;;;;;;;;5033846;28;20115;-79
2022/10/11 03:21:59;;;;;;;6.45;3.92;;;;;;;;;;5034063;28;20029;-79
2022/10/11 03:24:25;;;;;;;6.68;4.40;;;;;;;;;;5033594;28;20029;-79
2022/10/11 03:26:51;;;;;;;8.88;4.07;;;;;;;;;;5033192;28;20029;-79
2022/10/11 03:29:18;;;;;;;6.72;4.30;;;;;;;;;;5033467;28;20029;-79
2022/10/11 03:31:44;;;;;;;9.52;4.47;;;;;;;;;;5032974;28;20094;-79
2022/10/11 03:34:10;;;;;;;8.98;4.25;;;;;;;;;;5033398;28;20030;-79
2022/10/11 03:36:37;;;;;;;7.10;4.25;;;;;;;;;;5033370;28;20425;-79
2022/10/11 03:39:03;;;;;;;10.07;5.07;;;;;;;;;;5033965;28;20029;-79
2022/10/11 03:41:30;;;;;;;5.38;4.20;;;;;;;;;;5033015;28;20031;-79
2022/10/11 03:43:56;;;;;;;7.75;4.10;;;;;;;;;;5032043;28;20025;-79
2022/10/11 03:46:22;;;;;;;7.70;4.18;;;;;;;;;;5033299;28;20029;-79
2022/10/11 03:48:49;;;;;;;5.90;4.80;;;;;;;;;;5033007;28;20013;-79
2022/10/11 03:51:16;;;;;;;11.27;4.03;;;;;;;;;;5033003;28;20544;-79
2022/10/11 03:53:42;;;;;;;7.90;4.63;;;;;;;;;;5033169;28;20030;-79
2022/10/11 03:56:09;;;;;;;5.65;4.18;;;;;;;;;;5033653;28;20025;-79
2022/10/11 03:58:35;;;;;;;12.00;5.07;;;;;;;;;;5035712;28;20398;-79
2022/10/11 04:01:01;;;;;;;9.07;4.38;;;;;;;;;;5033683;28;20021;-79
2022/10/11 04:03:28;;;;;;;6.15;4.53;;;;;;;;;;5033198;28;20032;-79
2022/10/11 04:05:54;;;;;;;6.97;4.35;;;;;;;;;;5032645;28;20154;-79
2022/10/11 04:08:20;;;;;;;7.28;4.53;;;;;;;;;;5043008;28;20020;-80
2022/10/11 04:10:48;;;;;;;10.45;5.55;;;;;;;;;;5051265;28;20021;-80
2022/10/11 04:13:14;;;;;;;7.90;4.38;;;;;;;;;;5052608;28;20461;-79
2022/10/11 04:15:40;;;;;;;11.00;5.05;;;;;;;;;;5052665;28;20036;-79
2022/10/11 04:18:07;;;;;;;8.35;5.05;;;;;;;;;;5052938;28;20025;-79
2022/10/11 04:20:33;;;;;;;6.45;4.55;;;;;;;;;;5052510;28;20037;-79
2022/10/11 04:22:59;;;;;;;7.00;4.40;;;;;;;;;;5053223;28;20074;-79
2022/10/11 04:25:26;;;;;;;7.78;4.68;;;;;;;;;;5051966;28;20037;-79
2022/10/11 04:27:52;;;;;;;7.63;4.50;;;;;;;;;;5052466;28;20009;-79
2022/10/11 04:30:19;;;;;;;7.80;4.53;;;;;;;;;;5048142;28;20039;-79
2022/10/11 04:32:45;;;;;;;6.95;4.93;;;;;;;;;;5032322;28;20025;-79
2022/10/11 04:35:11;;;;;;;10.07;4.63;;;;;;;;;;5032452;28;20079;-79
2022/10/11 04:37:38;;;;;;;7.63;4.30;;;;;;;;;;5032388;28;20029;-79
2022/10/11 04:40:05;;;;;;;11.00;5.10;;;;;;;;;;5031913;28;20395;-79
2022/10/11 04:42:31;;;;;;;9.30;4.90;;;;;;;;;;5032093;28;20024;-79
2022/10/11 04:44:58;;;;;;;11.75;4.63;;;;;;;;;;5031421;28;20475;-79
2022/10/11 04:47:24;;;;;;;7.03;4.43;;;;;;;;;;5032168;28;20147;-79
2022/10/11 04:49:50;;;;;;;8.80;4.60;;;;;;;;;;5032628;28;20039;-79
2022/10/11 04:52:17;;;;;;;7.35;4.70;;;;;;;;;;5032362;28;20075;-79
2022/10/11 04:54:43;;;;;;;10.10;4.63;;;;;;;;;;5031649;28;20029;-78
2022/10/11 04:57:09;;;;;;;9.88;4.55;;;;;;;;;;5047989;28;20030;-78
2022/10/11 04:59:36;;;;;;;9.35;4.78;;;;;;;;;;5032280;28;20026;-78
2022/10/11 05:02:02;;;;;;;10.35;4.65;;;;;;;;;;5032157;28;20033;-78
2022/10/11 05:04:28;;;;;;;9.73;4.82;;;;;;;;;;5032334;28;20632;-78
2022/10/11 05:06:54;;;;;;;6.47;4.57;;;;;;;;;;5032036;28;20030;-79
2022/10/11 05:09:21;;;;;;;9.43;4.82;;;;;;;;;;5031900;28;20022;-78
2022/10/11 05:11:48;;;;;;;8.77;4.72;;;;;;;;;;5032277;28;20044;-78
2022/10/11 05:14:14;;;;;;;7.65;4.28;;;;;;;;;;5033410;28;20046;-79
2022/10/11 05:16:40;;;;;;;9.13;4.47;;;;;;;;;;5033870;28;20025;-78
2022/10/11 05:19:07;;;;;;;5.93;4.30;;;;;;;;;;5032169;28;20034;-78
2022/10/11 05:21:33;;;;;;;9.05;4.65;;;;;;;;;;5031924;28;20402;-78
2022/10/11 05:24:00;;;;;;;8.73;4.60;;;;;;;;;;5031359;28;20395;-79
2022/10/11 05:26:27;;;;;;;9.25;3.92;;;;;;;;;;5032298;28;20457;-79
2022/10/11 05:28:53;;;;;;;9.73;3.85;;;;;;;;;;5031705;28;20493;-77
2022/10/11 05:31:20;;;;;;;9.50;4.22;;;;;;;;;;5031697;28;20024;-78
2022/10/11 05:33:47;;;;;;;10.95;4.53;;;;;;;;;;5031893;28;20036;-78
2022/10/11 05:36:13;;;;;;;7.57;4.47;;;;;;;;;;5031725;28;20040;-79
2022/10/11 05:38:39;;;;;;;8.63;4.38;;;;;;;;;;5031254;28;20487;-78
2022/10/11 05:41:07;;;;;;;11.82;4.60;;;;;;;;;;5031583;28;20029;-79
2022/10/11 05:43:34;;;;;;;9.50;4.60;;;;;;;;;;5031470;28;20048;-79
2022/10/11 05:46:00;;;;;;;7.10;5.00;;;;;;;;;;5031353;28;20487;-80
2022/10/11 05:48:27;;;;;;;11.15;5.43;;;;;;;;;;5031471;28;20026;-80
2022/10/11 05:51:01;;;;;;;10.02;5.10;;;;;;;;;;5030964;28;20035;-79
2022/10/11 05:53:28;;;;;;;11.68;6.53;;;;;;;;;;5031630;28;20017;-80
2022/10/11 05:55:54;;;;;;;11.50;6.05;;;;;;;;;;5033848;28;20494;-80
2022/10/11 05:58:21;;;;;;;17.27;5.95;;;;;;;;;;5035008;28;20099;-80
2022/10/11 06:00:47;;;;;;;14.32;6.25;;;;;;;;;;5034851;28;20031;-80
2022/10/11 06:03:14;;;;;;;8.38;6.00;;;;;;;;;;5035012;28;20029;-79
2022/10/11 06:05:40;;;;;;;13.93;6.60;;;;;;;;;;5034495;28;20030;-79
2022/10/11 06:08:08;;;;;;;11.10;5.47;;;;;;;;;;5034706;28;20017;-80
2022/10/11 06:10:35;;;;;;;14.70;5.15;;;;;;;;;;5034746;28;20022;-80
2022/10/11 06:13:02;;;;;;;9.38;5.18;;;;;;;;;;5029706;28;20048;-80
2022/10/11 06:15:28;;;;;;;17.27;5.18;;;;;;;;;;5034223;28;20032;-80
2022/10/11 06:17:55;;;;;;;10.48;4.85;;;;;;;;;;5034309;28;20026;-80
2022/10/11 06:20:21;;;;;;;9.48;4.68;;;;;;;;;;5033623;28;20037;-80
2022/10/11 06:22:47;;;;;;;9.73;4.70;;;;;;;;;;5040658;28;20031;-80
2022/10/11 06:25:13;;;;;;;11.13;5.05;;;;;;;;;;5032592;28;20041;-81
2022/10/11 06:27:40;;;;;;;9.90;4.50;;;;;;;;;;5034358;28;20029;-80
2022/10/11 06:30:06;;;;;;;9.80;4.78;;;;;;;;;;5033619;28;20077;-80
2022/10/11 06:32:33;;;;;;;11.90;4.40;;;;;;;;;;5034726;28;20021;-79
2022/10/11 06:34:59;;;;;;;8.15;4.20;;;;;;;;;;5053443;28;20025;-80
2022/10/11 06:37:26;;;;;;;9.52;4.63;;;;;;;;;;5035858;28;20021;-81
2022/10/11 06:39:52;;;;;;;8.82;4.13;;;;;;;;;;5033040;28;20036;-81
2022/10/11 06:42:18;;;;;;;7.78;4.38;;;;;;;;;;5033499;28;20036;-81
2022/10/11 06:44:45;;;;;;;12.02;4.60;;;;;;;;;;5033416;28;20025;-81
2022/10/11 06:47:11;;;;;;;15.18;5.05;;;;;;;;;;5033585;28;20092;-81
2022/10/11 06:49:37;;;;;;;12.05;4.90;;;;;;;;;;5033851;28;20026;-81
2022/10/11 06:52:04;;;;;;;34.03;5.45;;;;;;;;;;5033763;28;20036;-82
2022/10/11 06:54:30;;;;;;;22.15;5.68;;;;;;;;;;5033393;28;20033;-81
2022/10/11 06:56:57;;;;;;;36.70;5.10;;;;;;;;;;5049052;28;20486;-81
2022/10/11 06:59:23;;;;;;;19.10;5.13;;;;;;;;;;5033454;28;20018;-81
2022/10/11 07:01:49;;;;;;;14.55;4.20;;;;;;;;;;5032371;28;20024;-82
2022/10/11 07:04:16;;;;;;;20.38;4.28;;;;;;;;;;5029007;28;20500;-82
2022/10/11 07:06:42;;;;;;;14.23;4.30;;;;;;;;;;5032105;28;20529;-80
2022/10/11 07:09:09;;;;;;;24.63;4.47;;;;;;;;;;5033040;28;20026;-81
2022/10/11 07:11:35;;;;;;;10.02;3.65;;;;;;;;;;5033034;28;20556;-80
2022/10/11 07:14:04;;;;;;;6.97;3.35;;;;;;;;;;5031878;28;20043;-79
2022/10/11 07:16:31;;;;;;;9.77;3.17;;;;;;;;;;5032867;28;20034;-80
2022/10/11 07:18:58;;;;;;;5.18;3.15;;;;;;;;;;5027300;28;20030;-80
2022/10/11 07:21:25;;;;;;;22.33;4.93;;;;;;;;;;5032465;28;20025;-80
2022/10/11 07:23:51;;;;;;;31.95;6.47;;;;;;;;;;5036712;28;20025;-79
2022/10/11 07:26:18;;;;;;;52.47;9.70;;;;;;;;;;5032173;28;20405;-80
2022/10/11 07:28:45;;;;;;;28.75;9.80;;;;;;;;;;5032233;28;20025;-80
2022/10/11 07:31:13;;;;;;;21.35;10.02;;;;;;;;;;5032284;28;20021;-80
2022/10/11 07:33:39;;;;;;;25.17;8.05;;;;;;;;;;5031921;28;20033;-80
2022/10/11 07:36:06;;;;;;;37.95;24.02;;;;;;;;;;5032936;28;20121;-80
2022/10/11 07:38:33;;;;;;;22.77;13.15;;;;;;;;;;5032555;28;20032;-80
2022/10/11 07:41:04;;;;;;;22.48;8.02;;;;;;;;;;5036832;28;20028;-80
2022/10/11 07:43:30;;;;;;;18.25;7.10;;;;;;;;;;5035590;28;20021;-79
2022/10/11 07:46:02;;;;;;;15.27;7.47;;;;;;;;;;5032169;28;20517;-80
2022/10/11 07:48:29;;;;;;;9.82;6.32;;;;;;;;;;5032126;28;20017;-81
2022/10/11 07:51:15;;;;;;;11.95;4.40;;;;;;;;;;5041537;28;20029;-80
2022/10/11 07:53:43;;;;;;;5.55;3.38;;;;;;;;;;5031709;28;20486;-80
2022/10/11 07:56:11;;;;;;;6.97;3.25;;;;;;;;;;5030680;28;20387;-82
2022/10/11 07:58:38;;;;;;;7.07;2.60;;;;;;;;;;5030224;28;20375;-82
2022/10/11 08:01:05;;;;;;;6.80;3.03;;;;;;;;;;5031500;28;20587;-81
2022/10/11 08:03:31;;;;;;;9.50;3.50;;;;;;;;;;5031562;28;20497;-82
2022/10/11 08:06:01;;;;;;;12.10;3.10;;;;;;;;;;5031819;28;20029;-81
2022/10/11 08:08:28;;;;;;;6.83;2.50;;;;;;;;;;5029860;28;20029;-81
2022/10/11 08:10:54;;;;;;;4.80;2.13;;;;;;;;;;5030789;28;20032;-81
2022/10/11 08:13:20;;;;;;;5.47;2.25;;;;;;;;;;5030458;28;20099;-81
2022/10/11 08:15:47;;;;;;;10.80;2.78;;;;;;;;;;5031109;28;20033;-80
2022/10/11 08:18:13;;;;;;;7.28;2.90;;;;;;;;;;5031583;28;20030;-81
2022/10/11 08:20:40;;;;;;;7.38;2.22;;;;;;;;;;5031350;28;20041;-81
2022/10/11 08:23:21;;;;;;;4.43;2.53;;;;;;;;;;5030726;28;20049;-80
2022/10/11 08:25:48;;;;;;;10.35;2.33;;;;;;;;;;5038068;28;20039;-81
2022/10/11 08:28:16;;;;;;;6.35;2.10;;;;;;;;;;5027644;28;20039;-80
2022/10/11 08:30:49;;;;;;;9.73;2.40;;;;;;;;;;5030185;28;20033;-81
2022/10/11 08:33:19;;;;;;;8.30;2.25;;;;;;;;;;5029660;28;20037;-81
2022/10/11 08:35:46;;;;;;;11.05;2.25;;;;;;;;;;5030475;28;20033;-80
2022/10/11 08:38:13;;;;;;;7.53;2.00;;;;;;;;;;5030409;28;20035;-81
2022/10/11 08:40:50;;;;;;;4.32;2.00;;;;;;;;;;5030366;28;20033;-81
2022/10/11 08:43:35;;;;;;;8.18;2.25;;;;;;;;;;5030398;28;20047;-81
2022/10/11 08:46:02;;;;;;;7.70;2.15;;;;;;;;;;5029394;28;20482;-81
2022/10/11 08:48:28;;;;;;;6.28;1.88;;;;;;;;;;5029818;28;20018;-82
2022/10/11 08:50:55;;;;;;;5.93;2.05;;;;;;;;;;5030485;28;20078;-81
2022/10/11 08:53:26;;;;;;;3.53;1.80;;;;;;;;;;5029726;28;20018;-81
2022/10/11 08:55:54;;;;;;;7.65;1.90;;;;;;;;;;5030750;28;20033;-82
2022/10/11 08:58:23;;;;;;;5.28;1.80;;;;;;;;;;5031220;28;20021;-81
2022/10/11 09:00:51;;;;;;;5.18;2.13;;;;;;;;;;5029102;28;20026;-83
2022/10/11 09:03:38;;;;;;;6.68;1.90;;;;;;;;;;5030097;28;20044;-82
2022/10/11 09:06:15;;;;;;;4.20;2.10;;;;;;;;;;5035171;28;20041;-83
2022/10/11 09:08:53;;;;;;;4.95;1.98;;;;;;;;;;5049669;28;20032;-83
2022/10/11 09:11:25;;;;;;;4.95;1.90;;;;;;;;;;5049688;28;20025;-82
2022/10/11 09:13:51;;;;;;;4.65;1.65;;;;;;;;;;5049808;28;20043;-82
2022/10/11 09:16:21;;;;;;;8.05;2.03;;;;;;;;;;5050060;28;20130;-82
2022/10/11 09:18:53;;;;;;;5.40;2.38;;;;;;;;;;5049815;28;20013;-82
2022/10/11 09:21:25;;;;;;;7.10;2.08;;;;;;;;;;5036650;28;20044;-83
2022/10/11 09:24:10;;;;;;;6.93;1.92;;;;;;;;;;5030486;28;20508;-81
2022/10/11 09:26:46;;;;;;;6.28;1.90;;;;;;;;;;5035941;28;20498;-82
2022/10/11 09:29:36;;;;;;;7.15;2.55;;;;;;;;;;5029956;28;20025;-83
2022/10/11 09:32:08;;;;;;;4.73;2.07;;;;;;;;;;5014463;28;20046;-83
2022/10/11 09:34:35;;;;;;;8.25;1.92;;;;;;;;;;5012116;28;20042;-82
2022/10/11 09:37:20;;;;;;;7.47;2.13;;;;;;;;;;5011767;28;20052;-83
2022/10/11 09:40:09;;;;;;;5.50;2.40;;;;;;;;;;5014229;28;20033;-83
2022/10/11 09:42:36;;;;;;;9.88;2.58;;;;;;;;;;4952858;29;20469;-83
2022/10/11 09:45:12;;;;;;;10.30;3.25;;;;;;;;;;4945292;29;20046;-83
2022/10/11 09:47:38;;;;;;;5.53;2.58;;;;;;;;;;4953605;29;20054;-83
2022/10/11 09:50:06;;;;;;;9.45;3.08;;;;;;;;;;4948991;29;20031;-82
2022/10/11 09:52:33;;;;;;;14.20;3.05;;;;;;;;;;4929679;29;20031;-81
2022/10/11 09:55:00;;;;;;;8.25;2.50;;;;;;;;;;4937773;29;20062;-82
2022/10/11 09:57:27;;;;;;;12.02;2.78;;;;;;;;;;4945648;29;20035;-83
2022/10/11 10:00:06;;;;;;;8.68;2.30;;;;;;;;;;4933605;29;20080;-83
2022/10/11 10:02:39;;;;;;;4.72;2.08;;;;;;;;;;4915779;29;20032;-82
2022/10/11 10:05:05;;;;;;;6.75;2.30;;;;;;;;;;4926181;29;20046;-83
2022/10/11 10:07:33;;;;;;;13.38;2.45;;;;;;;;;;4935494;29;20040;-82
2022/10/11 10:10:09;;;;;;;6.70;2.35;;;;;;;;;;4936386;29;20119;-83
2022/10/11 10:12:36;;;;;;;5.20;2.10;;;;;;;;;;4948061;29;20572;-84
2022/10/11 10:15:07;;;;;;;5.53;2.28;;;;;;;;;;4941320;29;20099;-83
2022/10/11 10:17:35;;;;;;;8.10;2.00;;;;;;;;;;4936212;29;20038;-82
2022/10/11 10:20:04;;;;;;;2.55;1.58;;;;;;;;;;4997199;28;20033;-83
2022/10/11 10:22:31;;;;;;;9.82;2.13;;;;;;;;;;5034328;28;20022;-84
2022/10/11 10:25:00;;;;;;;7.18;1.80;;;;;;;;;;5033938;28;20491;-84
2022/10/11 10:27:28;;;;;;;5.15;2.10;;;;;;;;;;5033721;28;20038;-81
2022/10/11 10:30:10;;;;;;;4.95;1.85;;;;;;;;;;5032816;28;20037;-80
2022/10/11 10:32:49;;;;;;;7.55;2.00;;;;;;;;;;5032776;28;20368;-80
2022/10/11 10:35:15;;;;;;;9.02;2.33;;;;;;;;;;5013530;28;20062;-81
2022/10/11 10:37:44;;;;;;;5.72;2.05;;;;;;;;;;5013916;28;20026;-81
2022/10/11 10:40:17;;;;;;;12.52;2.17;;;;;;;;;;5013605;28;20025;-81
2022/10/11 10:42:44;;;;;;;4.93;2.13;;;;;;;;;;5009690;28;20034;-80
2022/10/11 10:45:15;;;;;;;6.63;2.10;;;;;;;;;;5030936;28;20474;-80
2022/10/11 10:47:53;;;;;;;10.80;2.20;;;;;;;;;;5033466;28;20093;-80
2022/10/11 10:50:29;;;;;;;4.97;1.73;;;;;;;;;;5033222;28;20030;-80
2022/10/11 10:53:14;;;;;;;5.80;1.95;;;;;;;;;;5046464;28;20036;-81
2022/10/11 10:56:07;;;;;;;3.63;2.00;;;;;;;;;;5030222;28;20021;-80
2022/10/11 10:58:53;;;;;;;6.50;2.03;;;;;;;;;;5010261;28;20041;-79
2022/10/11 11:01:26;;;;;;;6.20;2.38;;;;;;;;;;4952710;29;20035;-80
2022/10/11 11:03:57;;;;;;;7.03;1.95;;;;;;;;;;4952897;29;20518;-80
2022/10/11 11:06:34;;;;;;;9.20;1.85;;;;;;;;;;4952269;29;20047;-80
2022/10/11 11:09:10;;;;;;;4.57;1.77;;;;;;;;;;4953005;28;20049;-80
2022/10/11 11:11:54;;;;;;;11.70;1.70;;;;;;;;;;4955120;28;20131;-80
2022/10/11 11:14:33;;;;;;;9.60;1.70;;;;;;;;;;4950247;28;20562;-80
2022/10/11 11:17:08;;;;;;;10.68;1.80;;;;;;;;;;4954352;28;20046;-79
2022/10/11 11:19:34;;;;;;;6.68;1.40;;;;;;;;;;4950213;29;20031;-80
2022/10/11 11:22:05;;;;;;;4.50;1.45;;;;;;;;;;4950321;29;20039;-79
2022/10/11 11:24:42;;;;;;;4.20;1.33;;;;;;;;;;4950161;29;20041;-79
2022/10/11 11:27:27;;;;;;;5.15;1.60;;;;;;;;;;4950812;29;20050;-79
2022/10/11 11:29:53;;;;;;;4.32;1.58;;;;;;;;;;4951278;29;20057;-79
2022/10/11 11:32:31;;;;;;;2.03;1.23;;;;;;;;;;4951343;29;20057;-79
2022/10/11 11:35:11;;;;;;;10.80;1.52;;;;;;;;;;4950459;29;20043;-79
2022/10/11 11:37:39;;;;;;;9.80;1.25;;;;;;;;;;4960789;28;20041;-79
2022/10/11 11:40:12;;;;;;;4.90;1.73;;;;;;;;;;5035660;28;20472;-79
2022/10/11 11:42:48;;;;;;;5.45;1.65;;;;;;;;;;5035980;28;20017;-80
2022/10/11 11:45:18;;;;;;;3.05;1.02;;;;;;;;;;5036087;28;20041;-79
2022/10/11 11:47:47;;;;;;;5.38;1.25;;;;;;;;;;5034404;28;20099;-80
2022/10/11 11:50:24;;;;;;;4.00;1.40;;;;;;;;;;5032260;28;20025;-80
2022/10/11 11:53:06;;;;;;;3.15;1.10;;;;;;;;;;5031536;28;20040;-81
2022/10/11 11:55:42;;;;;;;6.65;1.10;;;;;;;;;;5031151;28;20023;-80
2022/10/11 11:58:09;;;;;;;4.72;1.00;;;;;;;;;;5032989;28;20021;-81
2022/10/11 12:00:47;;;;;;;3.58;1.30;;;;;;;;;;5036005;28;20183;-81
2022/10/11 12:03:17;;;;;;;5.07;1.27;;;;;;;;;;5031487;28;20091;-82
2022/10/11 12:06:03;;;;;;;3.92;1.33;;;;;;;;;;5029449;28;20151;-81
2022/10/11 12:08:31;;;;;;;5.97;1.15;;;;;;;;;;5031107;28;20029;-80
2022/10/11 12:11:01;;;;;;;4.78;1.15;;;;;;;;;;5032455;28;20040;-81
2022/10/11 12:13:28;;;;;;;3.28;1.10;;;;;;;;;;5039328;28;20102;-80
2022/10/11 12:16:04;;;;;;;2.83;0.88;;;;;;;;;;5035678;28;20026;-80
2022/10/11 12:18:31;;;;;;;2.85;1.00;;;;;;;;;;5030731;28;20494;-79
2022/10/11 12:21:05;;;;;;;3.15;1.00;;;;;;;;;;5031383;28;20029;-80
2022/10/11 12:23:31;;;;;;;4.20;1.30;;;;;;;;;;5031100;28;20051;-80
2022/10/11 12:26:15;;;;;;;4.90;1.30;;;;;;;;;;5039743;28;20040;-80
2022/10/11 12:28:42;;;;;;;2.72;1.08;;;;;;;;;;5032749;28;20021;-81
2022/10/11 12:31:20;;;;;;;5.53;1.38;;;;;;;;;;5035354;28;20036;-79
2022/10/11 12:33:46;;;;;;;2.50;1.08;;;;;;;;;;5031084;28;20058;-81
2022/10/11 12:36:30;;;;;;;3.60;1.30;;;;;;;;;;5030725;28;20024;-79
2022/10/11 12:39:15;;;;;;;4.07;1.10;;;;;;;;;;5030242;28;20028;-80
2022/10/11 12:41:48;;;;;;;3.55;0.98;;;;;;;;;;5029674;28;20402;-79
2022/10/11 12:44:18;;;;;;;3.70;1.38;;;;;;;;;;5030779;28;20029;-79
2022/10/11 12:46:52;;;;;;;4.18;1.30;;;;;;;;;;5031491;28;20041;-79
2022/10/11 12:49:54;;;;;;;5.38;1.10;;;;;;;;;;5030762;28;20029;-81
2022/10/11 12:52:28;;;;;;;4.60;0.95;;;;;;;;;;5008546;28;20030;-81
2022/10/11 12:54:57;;;;;;;6.25;1.40;;;;;;;;;;4992359;28;20034;-81
2022/10/11 12:57:29;;;;;;;2.50;1.05;;;;;;;;;;4990982;28;20031;-81
2022/10/11 13:00:06;;;;;;;5.82;1.13;;;;;;;;;;5008023;28;20052;-81
2022/10/11 13:02:39;;;;;;;4.10;1.30;;;;;;;;;;5008243;28;20026;-81
2022/10/11 13:05:26;;;;;;;7.15;1.30;;;;;;;;;;5009900;28;20144;-81
2022/10/11 13:07:57;;;;;;;8.02;1.40;;;;;;;;;;5012001;28;20044;-81
2022/10/11 13:10:41;;;;;;;6.28;1.50;;;;;;;;;;5012469;28;20030;-81
2022/10/11 13:13:14;;;;;;;6.00;1.20;;;;;;;;;;5012589;28;20152;-81
2022/10/11 13:15:41;;;;;;;5.93;1.20;;;;;;;;;;5010287;28;20036;-79
2022/10/11 13:18:13;;;;;;;4.32;1.30;;;;;;;;;;5024046;28;20037;-80
2022/10/11 13:20:39;;;;;;;2.67;1.30;;;;;;;;;;5030233;28;20387;-81
2022/10/11 13:23:26;;;;;;;5.95;1.17;;;;;;;;;;5011478;28;20402;-80
2022/10/11 13:25:52;;;;;;;3.17;1.10;;;;;;;;;;5016107;28;20095;-81
2022/10/11 13:28:20;;;;;;;5.43;1.25;;;;;;;;;;5036372;28;20033;-81
2022/10/11 13:30:48;;;;;;;3.53;1.25;;;;;;;;;;5034146;28;20382;-80
2022/10/11 13:33:25;;;;;;;5.30;1.77;;;;;;;;;;5034419;28;20033;-81
2022/10/11 13:35:52;;;;;;;3.10;1.00;;;;;;;;;;5034410;28;20030;-81
2022/10/11 13:38:37;;;;;;;2.60;1.05;;;;;;;;;;5032588;28;20482;-81
2022/10/11 13:41:04;;;;;;;7.38;1.27;;;;;;;;;;5034286;28;20033;-80
2022/10/11 13:43:31;;;;;;;9.40;1.40;;;;;;;;;;5033729;28;20410;-80
2022/10/11 13:45:59;;;;;;;6.10;1.23;;;;;;;;;;5034005;28;20044;-81
2022/10/11 13:48:26;;;;;;;4.90;1.10;;;;;;;;;;5034022;28;20022;-82
2022/10/11 13:51:09;;;;;;;3.28;1.00;;;;;;;;;;5033983;28;20039;-81
2022/10/11 13:53:35;;;;;;;4.43;1.15;;;;;;;;;;5032931;28;20043;-81
2022/10/11 13:56:08;;;;;;;5.95;1.17;;;;;;;;;;5033684;28;20029;-81
2022/10/11 13:58:39;;;;;;;10.32;1.27;;;;;;;;;;5033705;28;20017;-82
2022/10/11 14:01:20;;;;;;;3.83;1.05;;;;;;;;;;5033818;28;20520;-82
2022/10/11 14:03:46;;;;;;;;;;;;;;;;;;5033937;28;20478;-80
2022/10/11 14:06:12;;;;;;;5.80;1.33;;;;;;;;;;5033803;28;19917;-80
2022/10/11 14:08:43;;;;;;;4.05;1.10;;;;;;;;;;5033371;28;20014;-80
2022/10/11 14:11:10;;;;;;;5.55;1.20;;;;;;;;;;5034207;28;20022;-79
2022/10/11 14:13:38;;;;;;;6.55;1.33;;;;;;;;;;5033822;28;20045;-80
2022/10/11 14:16:06;;;;;;;5.10;1.30;;;;;;;;;;5033039;28;20432;-80
2022/10/11 14:18:42;;;;;;;5.80;1.10;;;;;;;;;;5033203;28;20078;-79
2022/10/11 14:21:17;;;;;;;3.88;1.15;;;;;;;;;;5033282;28;20035;-79
2022/10/11 14:23:44;;;;;;;8.82;1.42;;;;;;;;;;5033399;28;20022;-80
2022/10/11 14:26:14;;;;;;;5.07;1.08;;;;;;;;;;5033102;28;20033;-79
2022/10/11 14:28:41;;;;;;;3.80;1.00;;;;;;;;;;5033753;28;20391;-79
2022/10/11 14:31:09;;;;;;;6.80;1.35;;;;;;;;;;5032791;28;20037;-79
2022/10/11 14:33:35;;;;;;;11.88;1.35;;;;;;;;;;5032928;28;20032;-78
2022/10/11 14:36:02;;;;;;;6.50;1.20;;;;;;;;;;5032753;28;20022;-78
2022/10/11 14:38:28;;;;;;;3.95;1.10;;;;;;;;;;5034249;28;20022;-79
2022/10/11 14:40:54;;;;;;;2.67;1.00;;;;;;;;;;5038691;28;20026;-79
2022/10/11 14:43:21;;;;;;;6.78;1.10;;;;;;;;;;5038521;28;20071;-80
2022/10/11 14:45:48;;;;;;;5.35;1.10;;;;;;;;;;5033300;28;20092;-79
2022/10/11 14:48:14;;;;;;;5.18;1.15;;;;;;;;;;5032063;28;20022;-78
2022/10/11 14:50:49;;;;;;;8.40;1.23;;;;;;;;;;5036170;28;20021;-78
2022/10/11 14:53:15;;;;;;;7.45;1.30;;;;;;;;;;5035656;28;20033;-78
2022/10/11 14:55:42;;;;;;;6.22;1.27;;;;;;;;;;5035420;28;20394;-79